createdAt,value
2019-04-19T00:01:06.533Z,17.00
2019-04-19T00:03:38.491Z,17.10
2019-04-19T00:06:32.919Z,15.80
2019-04-19T00:09:16.300Z,17.67
2019-04-19T00:11:43.935Z,16.77
2019-04-19T00:14:10.801Z,16.47
2019-04-19T00:16:42.789Z,18.33
2019-04-19T00:19:35.658Z,17.30
2019-04-19T00:22:13.257Z,17.77
2019-04-19T00:24:20.841Z,17.80
2019-04-19T00:26:52.814Z,17.10
2019-04-19T00:29:36.628Z,17.07
2019-04-19T00:32:18.112Z,14.13
2019-04-19T00:34:32.064Z,16.90
2019-04-19T00:37:05.756Z,17.53
2019-04-19T00:40:05.025Z,17.60
2019-04-19T00:42:46.035Z,13.33
2019-04-19T00:45:23.719Z,17.20
2019-04-19T00:47:57.542Z,16.47
2019-04-19T00:50:23.926Z,16.17
2019-04-19T00:53:05.299Z,16.37
2019-04-19T00:55:30.069Z,16.27
2019-04-19T00:58:06.435Z,16.50
2019-04-19T01:00:33.316Z,16.57
2019-04-19T01:03:02.725Z,16.80
2019-04-19T01:05:43.448Z,16.10
2019-04-19T01:08:15.962Z,17.27
2019-04-19T01:10:59.255Z,16.93
2019-04-19T01:13:30.339Z,17.17
2019-04-19T01:16:01.164Z,17.40
2019-04-19T01:18:32.101Z,16.40
2019-04-19T01:20:54.328Z,16.67
2019-04-19T01:23:31.187Z,16.57
2019-04-19T01:26:07.186Z,17.10
2019-04-19T01:28:37.216Z,16.37
2019-04-19T01:31:17.241Z,15.93
2019-04-19T01:33:45.520Z,15.80
2019-04-19T01:36:18.985Z,15.40
2019-04-19T01:38:58.088Z,15.60
2019-04-19T01:41:38.346Z,17.27
2019-04-19T01:44:25.234Z,14.90
2019-04-19T01:47:04.554Z,15.60
2019-04-19T01:49:56.560Z,15.43
2019-04-19T01:52:44.967Z,16.23
2019-04-19T01:55:01.824Z,15.73
2019-04-19T01:57:25.557Z,15.10
2019-04-19T02:00:00.911Z,15.93
2019-04-19T02:02:32.729Z,15.67
2019-04-19T02:05:09.779Z,15.67
2019-04-19T02:07:38.927Z,15.60
2019-04-19T02:11:18.128Z,15.30
2019-04-19T02:13:50.843Z,14.47
2019-04-19T02:16:17.016Z,14.93
2019-04-19T02:18:45.281Z,14.40
2019-04-19T02:21:24.689Z,16.00
2019-04-19T02:23:54.628Z,15.77
2019-04-19T02:26:24.742Z,15.87
2019-04-19T02:29:02.633Z,15.30
2019-04-19T02:31:54.239Z,15.00
2019-04-19T02:34:33.852Z,14.53
2019-04-19T02:37:08.297Z,16.03
2019-04-19T02:42:54.613Z,14.50
2019-04-19T02:44:55.267Z,13.80
2019-04-19T02:55:12.164Z,15.77
2019-04-19T02:57:59.353Z,13.67
2019-04-19T03:03:32.571Z,15.70
2019-04-19T03:05:50.526Z,15.33
2019-04-19T03:08:06.493Z,15.60
2019-04-19T03:10:54.642Z,15.20
2019-04-19T03:13:25.616Z,15.67
2019-04-19T03:15:59.751Z,16.33
2019-04-19T03:18:34.614Z,14.70
2019-04-19T03:21:03.078Z,15.23
2019-04-19T03:23:39.408Z,14.00
2019-04-19T03:26:16.621Z,15.80
2019-04-19T03:28:40.567Z,16.47
2019-04-19T03:31:32.061Z,16.37
2019-04-19T03:34:05.007Z,16.43
2019-04-19T03:36:24.638Z,15.43
2019-04-19T03:39:04.162Z,15.87
2019-04-19T03:42:03.074Z,17.10
2019-04-19T03:44:30.627Z,16.57
2019-04-19T03:47:09.502Z,16.40
2019-04-19T03:49:57.440Z,16.40
2019-04-19T03:52:32.390Z,15.70
2019-04-19T03:54:45.058Z,17.03
2019-04-19T03:57:18.415Z,16.43
2019-04-19T03:59:37.587Z,16.77
2019-04-19T04:02:09.821Z,16.87
2019-04-19T04:04:48.358Z,17.20
2019-04-19T04:07:20.814Z,16.10
2019-04-19T04:10:21.016Z,16.13
2019-04-19T04:13:09.269Z,17.17
2019-04-19T04:15:55.502Z,17.70
2019-04-19T04:18:15.556Z,16.23
2019-04-19T04:20:52.793Z,16.73
2019-04-19T04:23:25.385Z,16.20
2019-04-19T04:26:02.901Z,18.30
2019-04-19T04:28:42.596Z,16.80
2019-04-19T04:31:13.380Z,17.70
2019-04-19T04:33:46.979Z,17.30
2019-04-19T04:36:34.610Z,18.43
2019-04-19T04:38:45.718Z,18.57
2019-04-19T04:41:21.836Z,19.70
2019-04-19T04:44:11.386Z,22.00
2019-04-19T04:46:52.928Z,18.70
2019-04-19T04:49:52.383Z,18.23
2019-04-19T04:52:30.561Z,17.23
2019-04-19T04:55:07.252Z,17.20
2019-04-19T04:57:47.477Z,17.77
2019-04-19T05:00:12.218Z,18.20
2019-04-19T05:03:00.269Z,19.10
2019-04-19T05:05:36.970Z,18.40
2019-04-19T05:08:15.194Z,17.93
2019-04-19T05:10:35.933Z,17.87
2019-04-19T05:13:27.379Z,18.37
2019-04-19T05:15:49.222Z,17.40
2019-04-19T05:18:26.343Z,18.10
2019-04-19T05:20:52.884Z,17.97
2019-04-19T05:23:28.596Z,18.10
2019-04-19T05:26:21.536Z,18.40
2019-04-19T05:28:36.849Z,18.13
2019-04-19T05:30:58.243Z,18.87
2019-04-19T05:33:39.944Z,17.97
2019-04-19T05:36:19.462Z,17.97
2019-04-19T05:39:25.315Z,16.13
2019-04-19T05:41:59.735Z,17.80
2019-04-19T05:45:01.347Z,17.40
2019-04-19T05:47:19.557Z,18.67
2019-04-19T05:49:52.445Z,16.23
2019-04-19T05:52:30.484Z,16.77
2019-04-19T05:54:41.134Z,16.73
2019-04-19T05:57:31.916Z,18.70
2019-04-19T05:59:54.831Z,17.20
2019-04-19T06:02:28.481Z,16.17
2019-04-19T06:05:18.861Z,17.20
2019-04-19T06:07:39.173Z,16.20
2019-04-19T06:10:01.109Z,15.70
2019-04-19T06:12:35.905Z,16.20
2019-04-19T06:15:33.239Z,15.57
2019-04-19T06:18:34.255Z,15.57
2019-04-19T06:21:17.379Z,15.93
2019-04-19T06:23:48.437Z,13.87
2019-04-19T06:31:27.229Z,15.13
2019-04-19T06:33:57.675Z,14.20
2019-04-19T06:36:14.534Z,14.10
2019-04-19T06:38:46.564Z,14.13
2019-04-19T06:41:23.234Z,13.20
2019-04-19T06:44:04.931Z,15.07
2019-04-19T06:46:39.457Z,14.40
2019-04-19T06:49:05.988Z,13.73
2019-04-19T06:51:43.632Z,13.57
2019-04-19T06:54:09.430Z,14.10
2019-04-19T06:56:46.749Z,13.53
2019-04-19T06:59:20.187Z,12.63
2019-04-19T07:01:51.084Z,12.77
2019-04-19T07:04:21.161Z,12.97
2019-04-19T07:07:09.390Z,12.50
2019-04-19T07:09:52.425Z,13.40
2019-04-19T07:12:19.557Z,12.43
2019-04-19T07:14:36.083Z,13.60
2019-04-19T07:17:26.371Z,11.87
2019-04-19T07:19:57.727Z,13.87
2019-04-19T07:22:30.596Z,12.30
2019-04-19T07:25:15.605Z,12.67
2019-04-19T07:27:34.360Z,12.87
2019-04-19T07:29:58.863Z,11.93
2019-04-19T07:32:37.416Z,11.83
2019-04-19T07:35:22.408Z,11.80
2019-04-19T07:37:58.770Z,11.80
2019-04-19T07:43:04.388Z,12.13
2019-04-19T07:45:55.131Z,12.77
2019-04-19T07:48:17.336Z,11.13
2019-04-19T07:50:53.572Z,12.33
2019-04-19T07:53:27.684Z,11.53
2019-04-19T07:56:07.922Z,11.13
2019-04-19T07:58:51.190Z,12.00
2019-04-19T08:01:45.926Z,10.63
2019-04-19T08:04:48.849Z,11.70
2019-04-19T08:06:37.661Z,11.07
2019-04-19T08:09:13.450Z,12.20
2019-04-19T08:11:48.603Z,10.70
2019-04-19T08:14:08.040Z,11.20
2019-04-19T08:29:23.537Z,11.57
2019-04-19T08:31:44.388Z,11.30
2019-04-19T08:34:21.366Z,12.80
2019-04-19T08:36:57.731Z,11.73
2019-04-19T08:39:43.367Z,11.80
2019-04-19T08:42:18.961Z,11.27
2019-04-19T08:44:43.126Z,11.73
2019-04-19T08:47:35.713Z,10.73
2019-04-19T08:50:16.597Z,10.90
2019-04-19T08:52:54.475Z,11.57
2019-04-19T08:55:40.615Z,10.73
2019-04-19T08:58:01.689Z,12.17
2019-04-19T09:00:57.600Z,11.23
2019-04-19T09:03:24.926Z,11.90
2019-04-19T09:06:18.396Z,10.93
2019-04-19T09:08:35.850Z,11.37
2019-04-19T09:11:07.375Z,12.00
2019-04-19T09:13:37.842Z,11.30
2019-04-19T09:16:12.752Z,11.43
2019-04-19T09:18:50.777Z,10.53
2019-04-19T09:21:16.937Z,11.30
2019-04-19T09:23:42.446Z,12.13
2019-04-19T09:26:26.631Z,11.00
2019-04-19T09:29:01.011Z,11.10
2019-04-19T09:31:29.666Z,10.93
2019-04-19T09:34:00.418Z,9.97
2019-04-19T09:36:30.524Z,10.60
2019-04-19T09:39:14.669Z,11.47
2019-04-19T09:41:38.251Z,10.83
2019-04-19T09:44:12.261Z,12.33
2019-04-19T09:46:36.126Z,10.40
2019-04-19T09:49:22.535Z,11.10
2019-04-19T09:51:55.367Z,10.97
2019-04-19T09:54:38.597Z,10.83
2019-04-19T09:57:04.503Z,11.43
2019-04-19T09:59:27.833Z,10.60
2019-04-19T10:01:58.026Z,11.03
2019-04-19T10:04:27.691Z,10.10
2019-04-19T10:06:59.183Z,9.43
2019-04-19T10:09:31.010Z,11.00
2019-04-19T10:12:03.898Z,12.07
2019-04-19T10:14:35.575Z,10.73
2019-04-19T10:17:13.557Z,11.50
2019-04-19T10:19:44.826Z,10.33
2019-04-19T10:22:17.107Z,9.90
2019-04-19T10:24:52.198Z,10.80
2019-04-19T10:27:31.166Z,11.03
2019-04-19T10:30:04.179Z,11.03
2019-04-19T10:32:38.591Z,10.27
2019-04-19T10:35:11.373Z,12.20
2019-04-19T10:37:43.914Z,10.30
2019-04-19T10:40:15.968Z,11.33
2019-04-19T10:42:49.387Z,10.37
2019-04-19T10:45:21.213Z,12.53
2019-04-19T10:47:53.775Z,11.53
2019-04-19T10:50:42.272Z,12.10
2019-04-19T10:53:06.309Z,11.17
2019-04-19T10:55:42.372Z,11.07
2019-04-19T10:58:15.035Z,11.47
2019-04-19T11:00:47.181Z,12.60
2019-04-19T11:03:19.101Z,13.97
2019-04-19T11:05:50.621Z,11.37
2019-04-19T11:08:22.499Z,11.97
2019-04-19T11:10:54.154Z,13.70
2019-04-19T11:13:28.755Z,12.77
2019-04-19T11:16:00.406Z,12.53
2019-04-19T11:18:32.107Z,10.80
2019-04-19T11:21:03.805Z,11.77
2019-04-19T11:23:35.748Z,12.60
2019-04-19T11:26:07.473Z,12.73
2019-04-19T11:28:41.025Z,11.90
2019-04-19T11:31:27.762Z,11.17
2019-04-19T11:33:59.678Z,12.50
2019-04-19T11:36:31.499Z,12.73
2019-04-19T11:39:03.195Z,12.03
2019-04-19T11:41:36.917Z,13.30
2019-04-19T11:44:15.042Z,12.00
2019-04-19T11:46:54.114Z,12.90
2019-04-19T11:49:33.399Z,12.40
2019-04-19T11:51:58.956Z,10.87
2019-04-19T11:54:30.837Z,10.53
2019-04-19T11:57:07.980Z,12.30
2019-04-19T11:59:50.730Z,10.00
2019-04-19T12:02:27.442Z,10.03
2019-04-19T12:05:03.754Z,8.90
2019-04-19T12:07:32.839Z,9.97
2019-04-19T12:10:08.354Z,10.43
2019-04-19T12:12:41.281Z,10.10
2019-04-19T12:15:13.808Z,10.80
2019-04-19T12:17:46.335Z,8.50
2019-04-19T12:20:19.352Z,8.53
2019-04-19T12:22:51.573Z,7.70
2019-04-19T12:25:23.835Z,8.50
2019-04-19T12:27:55.504Z,7.87
2019-04-19T12:30:29.459Z,7.67
2019-04-19T12:33:01.502Z,7.50
2019-04-19T12:35:34.970Z,7.37
2019-04-19T12:38:06.582Z,8.60
2019-04-19T12:41:03.899Z,9.27
2019-04-19T12:43:36.191Z,9.27
2019-04-19T12:46:07.981Z,8.30
2019-04-19T12:48:43.779Z,9.30
2019-04-19T12:51:19.408Z,9.77
2019-04-19T12:53:52.380Z,8.93
2019-04-19T12:56:24.471Z,7.87
2019-04-19T12:58:55.990Z,8.43
2019-04-19T13:01:46.442Z,8.43
2019-04-19T13:04:24.470Z,8.10
2019-04-19T13:07:02.049Z,8.40
2019-04-19T13:09:35.020Z,10.90
2019-04-19T13:12:06.798Z,9.70
2019-04-19T13:14:39.638Z,12.17
2019-04-19T13:17:12.552Z,10.13
2019-04-19T13:19:45.061Z,9.10
2019-04-19T13:22:16.679Z,10.50
2019-04-19T13:24:48.201Z,9.77
2019-04-19T13:27:21.145Z,9.00
2019-04-19T13:30:04.543Z,8.50
2019-04-19T13:32:26.060Z,8.63
2019-04-19T13:35:01.237Z,11.07
2019-04-19T13:37:38.938Z,10.13
2019-04-19T13:40:22.165Z,9.00
2019-04-19T13:42:56.677Z,9.93
2019-04-19T13:45:30.462Z,11.70
2019-04-19T13:48:00.878Z,10.77
2019-04-19T13:50:40.929Z,11.90
2019-04-19T13:53:12.964Z,11.00
2019-04-19T13:55:44.586Z,10.27
2019-04-19T13:58:17.868Z,11.40
2019-04-19T14:00:54.425Z,9.37
2019-04-19T14:03:27.563Z,10.33
2019-04-19T14:06:00.346Z,10.00
2019-04-19T14:08:33.021Z,10.10
2019-04-19T14:11:06.767Z,10.37
2019-04-19T14:13:39.183Z,11.60
2019-04-19T14:16:12.221Z,9.20
2019-04-19T14:18:48.760Z,10.50
2019-04-19T14:21:21.968Z,10.63
2019-04-19T14:23:53.904Z,10.83
2019-04-19T14:26:34.858Z,11.27
2019-04-19T14:28:59.195Z,9.80
2019-04-19T14:31:30.758Z,10.87
2019-04-19T14:34:03.360Z,9.57
2019-04-19T14:36:36.155Z,10.07
2019-04-19T14:39:10.727Z,11.40
2019-04-19T14:41:43.623Z,7.80
2019-04-19T14:44:15.603Z,9.57
2019-04-19T14:46:47.578Z,10.07
2019-04-19T14:49:19.237Z,10.10
2019-04-19T14:51:51.834Z,9.80
2019-04-19T14:54:23.804Z,9.23
2019-04-19T14:56:56.547Z,10.30
2019-04-19T14:59:29.744Z,9.80
2019-04-19T15:02:08.998Z,9.37
2019-04-19T15:04:44.740Z,10.17
2019-04-19T15:07:16.646Z,9.53
2019-04-19T15:09:48.366Z,9.53
2019-04-19T15:12:20.728Z,9.10
2019-04-19T15:14:53.429Z,7.50
2019-04-19T15:17:25.724Z,7.90
2019-04-19T15:19:57.576Z,9.20
2019-04-19T15:22:30.392Z,9.43
2019-04-19T15:25:04.576Z,9.67
2019-04-19T15:27:37.028Z,7.27
2019-04-19T15:30:10.861Z,9.30
2019-04-19T15:32:42.751Z,8.70
2019-04-19T15:35:16.027Z,8.20
2019-04-19T15:37:49.855Z,8.27
2019-04-19T15:40:24.350Z,7.90
2019-04-19T15:42:56.898Z,8.50
2019-04-19T15:45:31.304Z,8.13
2019-04-19T15:48:03.011Z,8.17
2019-04-19T15:50:35.963Z,7.20
2019-04-19T15:53:09.116Z,8.17
2019-04-19T15:55:42.068Z,8.10
2019-04-19T15:58:14.713Z,8.40
2019-04-19T16:00:54.493Z,7.77
2019-04-19T16:03:43.881Z,9.43
2019-04-19T16:06:20.396Z,8.07
2019-04-19T16:09:09.317Z,7.83
2019-04-19T16:12:00.729Z,9.00
2019-04-19T16:14:32.695Z,8.20
2019-04-19T16:17:05.299Z,7.60
2019-04-19T16:19:47.035Z,6.47
2019-04-19T16:22:20.186Z,7.53
2019-04-19T16:24:52.055Z,7.80
2019-04-19T16:27:25.242Z,7.90
2019-04-19T16:29:59.805Z,7.53
2019-04-19T16:32:30.892Z,7.87
2019-04-19T16:35:03.635Z,8.33
2019-04-19T16:37:39.206Z,7.83
2019-04-19T16:40:20.468Z,7.03
2019-04-19T16:42:53.064Z,7.67
2019-04-19T16:45:26.005Z,7.97
2019-04-19T16:47:57.946Z,7.90
2019-04-19T16:50:30.477Z,8.40
2019-04-19T16:53:04.713Z,7.10
2019-04-19T16:55:36.020Z,8.03
2019-04-19T16:58:08.519Z,6.73
2019-04-19T17:00:43.470Z,7.83
2019-04-19T17:03:17.469Z,6.90
2019-04-19T17:05:49.133Z,5.60
2019-04-19T17:08:21.746Z,7.50
2019-04-19T17:10:55.553Z,6.70
2019-04-19T17:13:27.128Z,6.30
2019-04-19T17:16:17.695Z,7.17
2019-04-19T17:19:09.236Z,6.37
2019-04-19T17:21:51.827Z,6.53
2019-04-19T17:24:14.604Z,6.50
2019-04-19T17:26:46.940Z,7.57
2019-04-19T17:29:19.072Z,6.80
2019-04-19T17:31:52.019Z,7.53
2019-04-19T17:34:24.389Z,6.07
2019-04-19T17:36:56.434Z,6.87
2019-04-19T17:39:28.812Z,7.37
2019-04-19T17:42:01.013Z,7.00
2019-04-19T17:44:33.543Z,7.90
2019-04-19T17:47:05.290Z,6.00
2019-04-19T17:49:38.443Z,7.13
2019-04-19T17:52:18.821Z,6.77
2019-04-19T17:55:01.312Z,5.60
2019-04-19T17:57:17.431Z,6.40
2019-04-19T17:59:50.271Z,6.07
2019-04-19T18:02:31.381Z,5.30
2019-04-19T18:05:04.159Z,6.53
2019-04-19T18:07:41.809Z,5.97
2019-04-19T18:10:14.470Z,5.50
2019-04-19T18:12:43.380Z,6.13
2019-04-19T18:15:15.458Z,5.30
2019-04-19T18:17:53.941Z,6.60
2019-04-19T18:20:22.987Z,6.27
2019-04-19T18:23:04.936Z,6.60
2019-04-19T18:25:33.101Z,6.30
2019-04-19T18:28:05.565Z,5.00
2019-04-19T18:30:40.557Z,5.20
2019-04-19T18:33:12.651Z,6.30
2019-04-19T18:35:44.506Z,5.87
2019-04-19T18:38:20.036Z,5.63
2019-04-19T18:40:49.417Z,5.93
2019-04-19T18:43:34.545Z,6.60
2019-04-19T18:45:57.271Z,6.50
2019-04-19T18:48:29.482Z,6.23
2019-04-19T18:51:02.308Z,4.93
2019-04-19T18:53:40.234Z,5.30
2019-04-19T18:56:12.222Z,5.80
2019-04-19T18:58:42.412Z,5.97
2019-04-19T19:01:23.417Z,6.40
2019-04-19T19:03:50.113Z,6.27
2019-04-19T19:06:28.401Z,6.47
2019-04-19T19:09:02.711Z,6.40
2019-04-19T19:11:29.905Z,6.13
2019-04-19T19:14:04.643Z,6.70
2019-04-19T19:16:38.164Z,5.73
2019-04-19T19:19:16.626Z,7.20
2019-04-19T19:21:45.407Z,6.30
2019-04-19T19:24:31.770Z,6.53
2019-04-19T19:27:02.491Z,6.10
2019-04-19T19:29:22.587Z,7.00
2019-04-19T19:31:57.813Z,6.67
2019-04-19T19:34:31.380Z,6.10
2019-04-19T19:37:03.123Z,7.40
2019-04-19T19:39:40.116Z,6.07
2019-04-19T19:44:52.601Z,7.87
2019-04-19T19:48:07.366Z,6.50
2019-04-19T19:50:48.610Z,6.87
2019-04-19T19:53:07.656Z,6.60
2019-04-19T19:55:38.759Z,6.67
2019-04-19T19:58:00.565Z,8.07
2019-04-19T20:00:39.660Z,7.43
2019-04-19T20:03:12.529Z,6.50
2019-04-19T20:05:36.838Z,6.37
2019-04-19T20:08:07.970Z,6.80
2019-04-19T20:10:44.063Z,6.93
2019-04-19T20:13:16.438Z,6.90
2019-04-19T20:15:49.226Z,6.47
2019-04-19T20:18:24.147Z,6.10
2019-04-19T20:20:54.592Z,7.20
2019-04-19T20:23:32.055Z,6.50
2019-04-19T20:26:10.825Z,6.90
2019-04-19T20:28:37.695Z,6.70
2019-04-19T20:31:08.937Z,8.27
2019-04-19T20:33:48.552Z,7.80
2019-04-19T20:36:14.992Z,6.80
2019-04-19T20:38:50.766Z,7.83
2019-04-19T20:41:20.702Z,8.00
2019-04-19T20:44:03.851Z,7.43
2019-04-19T20:46:28.671Z,7.20
2019-04-19T20:49:04.378Z,8.20
2019-04-19T20:51:50.261Z,7.70
2019-04-19T20:54:38.299Z,6.93
2019-04-19T20:57:29.915Z,6.70
2019-04-19T20:59:53.633Z,6.53
2019-04-19T21:02:27.773Z,7.50
2019-04-19T21:04:57.219Z,7.30
2019-04-19T21:07:29.669Z,6.80
2019-04-19T21:10:05.359Z,6.43
2019-04-19T21:12:34.588Z,7.00
2019-04-19T21:15:14.834Z,6.80
2019-04-19T21:17:44.237Z,10.50
2019-04-19T21:20:19.730Z,6.03
2019-04-19T21:22:46.709Z,6.33
2019-04-19T21:25:23.231Z,5.13
2019-04-19T21:27:55.163Z,7.00
2019-04-19T21:30:27.051Z,6.43
2019-04-19T21:33:04.373Z,7.17
2019-04-19T21:35:34.627Z,6.10
2019-04-19T21:38:11.413Z,6.27
2019-04-19T21:40:41.800Z,7.00
2019-04-19T21:43:13.088Z,7.00
2019-04-19T21:45:48.078Z,6.60
2019-04-19T21:48:24.865Z,7.47
2019-04-19T21:50:53.587Z,7.27
2019-04-19T21:53:29.231Z,7.30
2019-04-19T21:56:03.121Z,6.93
2019-04-19T21:58:31.951Z,7.00
2019-04-19T22:01:13.397Z,7.73
2019-04-19T22:03:41.457Z,8.00
2019-04-19T22:06:19.266Z,7.67
2019-04-19T22:08:46.361Z,7.33
2019-04-19T22:11:18.460Z,6.50
2019-04-19T22:13:53.044Z,8.10
2019-04-19T22:16:32.249Z,8.57
2019-04-19T22:18:57.755Z,7.83
2019-04-19T22:21:35.715Z,7.80
2019-04-19T22:24:02.842Z,8.57
2019-04-19T22:26:41.618Z,8.70
2019-04-19T22:29:09.261Z,7.90
2019-04-19T22:31:41.572Z,8.77
2019-04-19T22:34:14.639Z,8.10
2019-04-19T22:36:50.031Z,9.00
2019-04-19T22:39:21.331Z,8.40
2019-04-19T22:41:52.951Z,8.33
2019-04-19T22:44:24.911Z,8.70
2019-04-19T22:46:58.150Z,8.80
2019-04-19T22:49:34.093Z,8.83
2019-04-19T22:52:03.136Z,9.00
2019-04-19T22:54:34.938Z,9.10
2019-04-19T22:57:15.070Z,9.57
2019-04-19T22:59:47.010Z,9.27
2019-04-19T23:02:26.909Z,9.90
2019-04-19T23:05:01.098Z,8.63
2019-04-19T23:07:40.081Z,9.77
2019-04-19T23:10:06.647Z,10.23
2019-04-19T23:12:43.754Z,9.90
2019-04-19T23:15:23.307Z,9.80
2019-04-19T23:17:50.376Z,9.30
2019-04-19T23:20:26.131Z,9.13
2019-04-19T23:22:55.406Z,9.80
2019-04-19T23:25:33.599Z,9.50
2019-04-19T23:28:10.285Z,9.60
2019-04-19T23:30:34.816Z,9.97
2019-04-19T23:33:13.313Z,10.00
2019-04-19T23:35:41.553Z,10.00
2019-04-19T23:38:18.666Z,9.23
2019-04-19T23:40:45.978Z,11.47
2019-04-19T23:43:24.127Z,9.77
2019-04-19T23:45:52.414Z,9.80
2019-04-19T23:48:27.980Z,9.37
2019-04-19T23:50:57.380Z,9.90
2019-04-19T23:53:33.351Z,9.70
2019-04-19T23:56:02.500Z,10.30
2019-04-19T23:58:40.442Z,9.73
